バクー の空港の天気 - METARとTAF

ヘイダル・アリエフ国際空港(バクー) ( UBBB / BAK ) - アゼルバイジャン バクー
飛行場実況気象(Metar)
観測時間11/27 12:30 AZT (11/27 08:30 UTC)
風向・風速北西 6m/s
視程10km以上
天気現象
全天の8割程度の雲 雲底高度 460m
気温14℃
湿度82%
気圧1016hPa
METARUBBB 270830Z 32012KT 9999 BKN015 14/11 Q1016 NOSIG
過去の天気等 Google飛行場航空写真 Wunderground天気予報

過去48時間のMETAR

飛行場予報(TAF)
発表時間: 11/27 08:56 AZT (11/27 04:56 UTC)
予報対象時間: 27日10時 AZT ~ 28日10時 AZT
風向・風速北西 7m/s
視程10km以上
全天の4割程度の雲 雲底高度 370m
全天の8割程度の雲 雲底高度 910m
27日12時 AZT ~ 27日14時 AZT に徐々に
風向・風速北北西 9m/s 瞬間風速 14m/s
27日14時 AZT ~ 27日22時 AZT に一時的に
風向・風速北北西 12m/s 瞬間風速 17m/s
天気現象弱いしゅう雨
全天の8割程度の雲 雲底高度 240m
全天の4割程度の積乱雲 雲底高度 610m
全天を覆う雲 雲底高度 610m
TAF UBBB 270456Z 2706/2806 32014KT 9999 SCT012 BKN030 TX14/2708Z TN11/2802Z
BECMG 2708/2710 33018G28KT
TEMPO 2710/2718 34024G34KT -SHRA BKN008 SCT020CB OVC020